PWSweather.com
Personal Weather Stations
Station Observations
KNJOAKLA6
Oakland, NJ 07436

Oakland, NJ 07436

Lat: 41.041, Lon: -74.231

Elevation: 280

Station Type: Davis VP 2

http://stratacolorado.com/oaknjwx/

High Low Average
Temperature 74.4°F23.6°C 67.0°F19.4°C 70.3°F21.3°C
Dew Point 71.4°F21.9°C 65.6°F18.7°C 68.5°F20.3°C
Winds 2.0 mph 3.2 kmh Calm Calm Calm SSECalm SSE
Wind Gusts 7.0 mph11.3 kmh -- 2.0 mph3.2 kmh
Humidity 97% 87% 94%
Pressure 29.95 in1014.2 mb 29.82 in1009.8 mb -
Precipitation 0.31 in7.9 mm - -
Hour Temp Dew Point Humidity Winds Wind Gusts Pressure Precip Precip Rate Daily Precip Total
12:00 AM 68.1°F20.1°C 66.6°F19.2°C 95% Calm Calm -- 29.96 in1014.6 mb 0.04 in1.0 mm 0.00 in0.0 mm 0.01 in0.3 mm
12:10 AM 68.0°F20.0°C 66.5°F19.2°C 95% Calm Calm -- 29.95 in1014.2 mb 0.05 in1.3 mm 0.06 in1.5 mm 0.01 in0.3 mm
12:20 AM 68.1°F20.1°C 66.6°F19.2°C 95% Calm Calm -- 29.95 in1014.2 mb 0.05 in1.3 mm 0.00 in0.0 mm 0.02 in0.5 mm
12:30 AM 68.0°F20.0°C 66.5°F19.2°C 95% Calm Calm -- 29.95 in1014.2 mb 0.05 in1.3 mm 0.00 in0.0 mm 0.03 in0.8 mm
12:40 AM 68.0°F20.0°C 66.5°F19.2°C 95% Calm Calm -- 29.95 in1014.2 mb 0.05 in1.3 mm 0.00 in0.0 mm 0.04 in1.0 mm
12:50 AM 67.9°F19.9°C 66.4°F19.1°C 95% Calm Calm -- 29.95 in1014.2 mb 0.04 in1.0 mm 0.00 in0.0 mm 0.04 in1.0 mm
01:00 AM 67.9°F19.9°C 66.4°F19.1°C 95% Calm Calm -- 29.95 in1014.2 mb 0.04 in1.0 mm 0.00 in0.0 mm 0.05 in1.3 mm
01:10 AM 67.9°F19.9°C 66.4°F19.1°C 95% Calm Calm -- 29.94 in1013.9 mb 0.04 in1.0 mm 0.00 in0.0 mm 0.06 in1.5 mm
01:20 AM 67.9°F19.9°C 66.4°F19.1°C 95% Calm Calm -- 29.94 in1013.9 mb 0.04 in1.0 mm 0.00 in0.0 mm 0.06 in1.5 mm
01:30 AM 67.9°F19.9°C 66.7°F19.3°C 96% Calm Calm -- 29.94 in1013.9 mb 0.04 in1.0 mm 0.00 in0.0 mm 0.07 in1.8 mm
01:40 AM 67.9°F19.9°C 66.7°F19.3°C 96% Calm Calm -- 29.94 in1013.9 mb 0.04 in1.0 mm 0.00 in0.0 mm 0.08 in2.0 mm
01:50 AM 67.9°F19.9°C 66.7°F19.3°C 96% Calm Calm -- 29.94 in1013.9 mb 0.04 in1.0 mm 0.00 in0.0 mm 0.08 in2.0 mm
02:00 AM 67.9°F19.9°C 66.7°F19.3°C 96% Calm Calm -- 29.94 in1013.9 mb 0.04 in1.0 mm 0.00 in0.0 mm 0.09 in2.3 mm
02:10 AM 68.0°F20.0°C 66.8°F19.3°C 96% Calm Calm -- 29.94 in1013.9 mb 0.03 in0.8 mm 0.00 in0.0 mm 0.09 in2.3 mm
02:20 AM 68.0°F20.0°C 66.8°F19.3°C 96% Calm Calm -- 29.94 in1013.9 mb 0.04 in1.0 mm 0.06 in1.5 mm 0.10 in2.5 mm
02:30 AM 68.0°F20.0°C 66.8°F19.3°C 96% Calm Calm -- 29.94 in1013.9 mb 0.03 in0.8 mm 0.00 in0.0 mm 0.10 in2.5 mm
02:40 AM 68.0°F20.0°C 66.8°F19.3°C 96% Calm Calm -- 29.94 in1013.9 mb 0.03 in0.8 mm 0.00 in0.0 mm 0.11 in2.8 mm
02:50 AM 68.2°F20.1°C 67.0°F19.4°C 96% Calm Calm -- 29.93 in1013.5 mb 0.03 in0.8 mm 0.00 in0.0 mm 0.11 in2.8 mm
03:00 AM 68.2°F20.1°C 67.0°F19.4°C 96% Calm Calm -- 29.93 in1013.5 mb 0.03 in0.8 mm 0.00 in0.0 mm 0.12 in3.0 mm
03:10 AM 68.2°F20.1°C 67.0°F19.4°C 96% Calm Calm -- 29.92 in1013.2 mb 0.03 in0.8 mm 0.00 in0.0 mm 0.12 in3.0 mm
03:20 AM 68.2°F20.1°C 67.0°F19.4°C 96% Calm Calm 2.0 mph3.2 kmh 29.92 in1013.2 mb 0.02 in0.5 mm 0.00 in0.0 mm 0.12 in3.0 mm
03:30 AM 68.3°F20.2°C 67.1°F19.5°C 96% Calm Calm -- 29.92 in1013.2 mb 0.03 in0.8 mm 0.06 in1.5 mm 0.13 in3.3 mm
03:40 AM 68.4°F20.2°C 67.5°F19.7°C 97% Calm Calm -- 29.92 in1013.2 mb 0.02 in0.5 mm 0.00 in0.0 mm 0.13 in3.3 mm
03:50 AM 68.5°F20.3°C 67.6°F19.8°C 97% Calm Calm -- 29.92 in1013.2 mb 0.03 in0.8 mm 0.06 in1.5 mm 0.14 in3.6 mm
04:00 AM 68.6°F20.3°C 67.7°F19.8°C 97% Calm Calm -- 29.91 in1012.9 mb 0.02 in0.5 mm 0.00 in0.0 mm 0.14 in3.6 mm
04:10 AM 68.6°F20.3°C 67.7°F19.8°C 97% Calm Calm -- 29.92 in1013.2 mb 0.02 in0.5 mm 0.00 in0.0 mm 0.14 in3.6 mm
04:20 AM 68.7°F20.4°C 67.8°F19.9°C 97% Calm Calm 1.0 mph1.6 kmh 29.92 in1013.2 mb 0.03 in0.8 mm 0.06 in1.5 mm 0.15 in3.8 mm
04:30 AM 68.8°F20.4°C 67.9°F19.9°C 97% Calm Calm -- 29.92 in1013.2 mb 0.02 in0.5 mm 0.00 in0.0 mm 0.15 in3.8 mm
04:40 AM 68.8°F20.4°C 67.9°F19.9°C 97% Calm Calm -- 29.92 in1013.2 mb 0.02 in0.5 mm 0.00 in0.0 mm 0.15 in3.8 mm
04:50 AM 68.9°F20.5°C 68.0°F20.0°C 97% Calm Calm 1.0 mph1.6 kmh 29.92 in1013.2 mb 0.02 in0.5 mm 0.00 in0.0 mm 0.16 in4.1 mm
05:00 AM 68.9°F20.5°C 68.0°F20.0°C 97% Calm Calm 1.0 mph1.6 kmh 29.91 in1012.9 mb 0.02 in0.5 mm 0.00 in0.0 mm 0.16 in4.1 mm
05:10 AM 69.0°F20.6°C 68.1°F20.1°C 97% 2.0 mph SSW3.2 kmh SSW 6.0 mph9.7 kmh 29.92 in1013.2 mb 0.02 in0.5 mm 0.00 in0.0 mm 0.16 in4.1 mm
05:20 AM 69.0°F20.6°C 68.1°F20.1°C 97% Calm Calm 1.0 mph1.6 kmh 29.92 in1013.2 mb 0.01 in0.3 mm 0.00 in0.0 mm 0.16 in4.1 mm
05:30 AM 69.0°F20.6°C 68.1°F20.1°C 97% Calm Calm 5.0 mph8.0 kmh 29.92 in1013.2 mb 0.01 in0.3 mm 0.00 in0.0 mm 0.16 in4.1 mm
05:40 AM 68.9°F20.5°C 68.0°F20.0°C 97% Calm Calm 1.0 mph1.6 kmh 29.92 in1013.2 mb 0.02 in0.5 mm 0.06 in1.5 mm 0.17 in4.3 mm
05:50 AM 68.9°F20.5°C 68.0°F20.0°C 97% Calm Calm 1.0 mph1.6 kmh 29.92 in1013.2 mb 0.01 in0.3 mm 0.00 in0.0 mm 0.17 in4.3 mm
06:00 AM 68.9°F20.5°C 68.0°F20.0°C 97% Calm Calm 2.0 mph3.2 kmh 29.92 in1013.2 mb 0.01 in0.3 mm 0.00 in0.0 mm 0.17 in4.3 mm
06:10 AM 68.9°F20.5°C 68.0°F20.0°C 97% Calm Calm -- 29.92 in1013.2 mb 0.01 in0.3 mm 0.00 in0.0 mm 0.17 in4.3 mm
06:20 AM 68.8°F20.4°C 67.9°F19.9°C 97% Calm Calm -- 29.92 in1013.2 mb 0.01 in0.3 mm 0.00 in0.0 mm 0.17 in4.3 mm
06:30 AM 68.8°F20.4°C 67.9°F19.9°C 97% Calm Calm -- 29.92 in1013.2 mb 0.02 in0.5 mm 0.06 in1.5 mm 0.18 in4.6 mm
06:40 AM 68.8°F20.4°C 67.9°F19.9°C 97% Calm Calm -- 29.92 in1013.2 mb 0.01 in0.3 mm 0.00 in0.0 mm 0.18 in4.6 mm
06:50 AM 68.8°F20.4°C 67.9°F19.9°C 97% Calm Calm -- 29.93 in1013.5 mb 0.01 in0.3 mm 0.00 in0.0 mm 0.18 in4.6 mm
07:00 AM 68.9°F20.5°C 68.0°F20.0°C 97% Calm Calm 4.0 mph6.4 kmh 29.92 in1013.2 mb 0.01 in0.3 mm 0.00 in0.0 mm 0.18 in4.6 mm
07:10 AM 69.0°F20.6°C 68.1°F20.1°C 97% Calm Calm 2.0 mph3.2 kmh 29.92 in1013.2 mb 0.01 in0.3 mm 0.00 in0.0 mm 0.18 in4.6 mm
07:20 AM 69.0°F20.6°C 68.1°F20.1°C 97% Calm Calm 4.0 mph6.4 kmh 29.92 in1013.2 mb 0.01 in0.3 mm 0.00 in0.0 mm 0.18 in4.6 mm
07:30 AM 69.0°F20.6°C 68.1°F20.1°C 97% Calm Calm 1.0 mph1.6 kmh 29.93 in1013.5 mb 0.00 in0.0 mm 0.00 in0.0 mm 0.18 in4.6 mm
07:40 AM 69.1°F20.6°C 68.2°F20.1°C 97% Calm Calm 4.0 mph6.4 kmh 29.93 in1013.5 mb 0.00 in0.0 mm 0.00 in0.0 mm 0.18 in4.6 mm
07:50 AM 69.0°F20.6°C 68.1°F20.1°C 97% Calm Calm 3.0 mph4.8 kmh 29.93 in1013.5 mb 0.00 in0.0 mm 0.00 in0.0 mm 0.18 in4.6 mm
08:00 AM 69.0°F20.6°C 68.1°F20.1°C 97% Calm Calm -- 29.93 in1013.5 mb 0.00 in0.0 mm 0.00 in0.0 mm 0.18 in4.6 mm
08:10 AM 69.1°F20.6°C 68.2°F20.1°C 97% Calm Calm 1.0 mph1.6 kmh 29.93 in1013.5 mb 0.01 in0.3 mm 0.06 in1.5 mm 0.19 in4.8 mm
08:20 AM 69.1°F20.6°C 68.2°F20.1°C 97% Calm Calm 6.0 mph9.7 kmh 29.93 in1013.5 mb 0.01 in0.3 mm 0.00 in0.0 mm 0.19 in4.8 mm
08:30 AM 69.1°F20.6°C 68.2°F20.1°C 97% Calm Calm -- 29.94 in1013.9 mb 0.01 in0.3 mm 0.00 in0.0 mm 0.19 in4.8 mm
08:40 AM 69.2°F20.7°C 68.3°F20.2°C 97% Calm Calm 1.0 mph1.6 kmh 29.93 in1013.5 mb 0.01 in0.3 mm 0.00 in0.0 mm 0.19 in4.8 mm
08:50 AM 69.4°F20.8°C 68.5°F20.3°C 97% Calm Calm 1.0 mph1.6 kmh 29.93 in1013.5 mb 0.01 in0.3 mm 0.00 in0.0 mm 0.19 in4.8 mm
09:00 AM 69.5°F20.8°C 68.6°F20.3°C 97% Calm Calm 1.0 mph1.6 kmh 29.93 in1013.5 mb 0.00 in0.0 mm 0.00 in0.0 mm 0.19 in4.8 mm
09:10 AM 69.6°F20.9°C 68.7°F20.4°C 97% Calm Calm 6.0 mph9.7 kmh 29.93 in1013.5 mb 0.00 in0.0 mm 0.00 in0.0 mm 0.19 in4.8 mm
09:20 AM 69.5°F20.8°C 68.6°F20.3°C 97% Calm Calm 4.0 mph6.4 kmh 29.92 in1013.2 mb 0.00 in0.0 mm 0.00 in0.0 mm 0.19 in4.8 mm
09:30 AM 69.5°F20.8°C 68.6°F20.3°C 97% Calm Calm 6.0 mph9.7 kmh 29.92 in1013.2 mb 0.00 in0.0 mm 0.00 in0.0 mm 0.19 in4.8 mm
09:40 AM 69.2°F20.7°C 68.3°F20.2°C 97% 2.0 mph S3.2 kmh S 6.0 mph9.7 kmh 29.92 in1013.2 mb 0.00 in0.0 mm 0.00 in0.0 mm 0.19 in4.8 mm
09:50 AM 68.9°F20.5°C 67.7°F19.8°C 96% 1.0 mph S1.6 kmh S 4.0 mph6.4 kmh 29.92 in1013.2 mb 0.01 in0.3 mm 0.06 in1.5 mm 0.20 in5.1 mm
10:00 AM 68.9°F20.5°C 67.7°F19.8°C 96% 1.0 mph SE1.6 kmh SE 5.0 mph8.0 kmh 29.92 in1013.2 mb 0.01 in0.3 mm 0.00 in0.0 mm 0.20 in5.1 mm
10:10 AM 69.0°F20.6°C 67.8°F19.9°C 96% Calm Calm 3.0 mph4.8 kmh 29.92 in1013.2 mb 0.01 in0.3 mm 0.00 in0.0 mm 0.20 in5.1 mm
10:20 AM 69.1°F20.6°C 67.9°F19.9°C 96% Calm Calm 3.0 mph4.8 kmh 29.93 in1013.5 mb 0.01 in0.3 mm 0.00 in0.0 mm 0.20 in5.1 mm
10:30 AM 68.9°F20.5°C 67.7°F19.8°C 96% Calm Calm 5.0 mph8.0 kmh 29.93 in1013.5 mb 0.01 in0.3 mm 0.00 in0.0 mm 0.20 in5.1 mm
10:40 AM 69.0°F20.6°C 67.8°F19.9°C 96% Calm Calm 3.0 mph4.8 kmh 29.93 in1013.5 mb 0.01 in0.3 mm 0.00 in0.0 mm 0.20 in5.1 mm
10:50 AM 69.1°F20.6°C 67.9°F19.9°C 96% Calm Calm 3.0 mph4.8 kmh 29.92 in1013.2 mb 0.00 in0.0 mm 0.00 in0.0 mm 0.20 in5.1 mm
11:00 AM 69.3°F20.7°C 68.1°F20.1°C 96% Calm Calm 4.0 mph6.4 kmh 29.92 in1013.2 mb 0.00 in0.0 mm 0.00 in0.0 mm 0.20 in5.1 mm
11:10 AM 69.6°F20.9°C 68.4°F20.2°C 96% Calm Calm 1.0 mph1.6 kmh 29.92 in1013.2 mb 0.00 in0.0 mm 0.00 in0.0 mm 0.20 in5.1 mm
11:20 AM 69.9°F21.1°C 68.7°F20.4°C 96% Calm Calm 4.0 mph6.4 kmh 29.92 in1013.2 mb 0.00 in0.0 mm 0.00 in0.0 mm 0.20 in5.1 mm
11:30 AM 70.3°F21.3°C 69.1°F20.6°C 96% 1.0 mph S1.6 kmh S 5.0 mph8.0 kmh 29.92 in1013.2 mb 0.00 in0.0 mm 0.00 in0.0 mm 0.20 in5.1 mm
11:40 AM 70.4°F21.3°C 68.9°F20.5°C 95% Calm Calm 4.0 mph6.4 kmh 29.92 in1013.2 mb 0.00 in0.0 mm 0.00 in0.0 mm 0.20 in5.1 mm
11:50 AM 70.5°F21.4°C 68.7°F20.4°C 94% 1.0 mph SSE1.6 kmh SSE 6.0 mph9.7 kmh 29.92 in1013.2 mb 0.00 in0.0 mm 0.00 in0.0 mm 0.20 in5.1 mm
12:00 PM 70.5°F21.4°C 68.7°F20.4°C 94% 1.0 mph SE1.6 kmh SE 5.0 mph8.0 kmh 29.92 in1013.2 mb 0.00 in0.0 mm 0.00 in0.0 mm 0.20 in5.1 mm
12:10 PM 70.8°F21.6°C 69.0°F20.6°C 94% Calm Calm 1.0 mph1.6 kmh 29.92 in1013.2 mb 0.00 in0.0 mm 0.00 in0.0 mm 0.20 in5.1 mm
12:20 PM 71.0°F21.7°C 68.9°F20.5°C 93% Calm Calm 4.0 mph6.4 kmh 29.92 in1013.2 mb 0.00 in0.0 mm 0.00 in0.0 mm 0.20 in5.1 mm
12:30 PM 71.3°F21.8°C 69.2°F20.7°C 93% Calm Calm -- 29.92 in1013.2 mb 0.00 in0.0 mm 0.00 in0.0 mm 0.20 in5.1 mm
12:40 PM 71.8°F22.1°C 69.7°F20.9°C 93% Calm Calm 3.0 mph4.8 kmh 29.91 in1012.9 mb 0.00 in0.0 mm 0.00 in0.0 mm 0.20 in5.1 mm
12:50 PM 71.9°F22.2°C 69.5°F20.8°C 92% Calm Calm 3.0 mph4.8 kmh 29.91 in1012.9 mb 0.00 in0.0 mm 0.00 in0.0 mm 0.20 in5.1 mm
01:00 PM 72.1°F22.3°C 69.6°F20.9°C 92% Calm Calm 1.0 mph1.6 kmh 29.91 in1012.9 mb 0.00 in0.0 mm 0.00 in0.0 mm 0.20 in5.1 mm
01:10 PM 72.2°F22.3°C 69.7°F20.9°C 92% Calm Calm 2.0 mph3.2 kmh 29.91 in1012.9 mb 0.00 in0.0 mm 0.00 in0.0 mm 0.20 in5.1 mm
01:20 PM 72.1°F22.3°C 69.6°F20.9°C 92% Calm Calm 2.0 mph3.2 kmh 29.90 in1012.5 mb 0.00 in0.0 mm 0.00 in0.0 mm 0.20 in5.1 mm
01:30 PM 72.1°F22.3°C 69.6°F20.9°C 92% Calm Calm 1.0 mph1.6 kmh 29.90 in1012.5 mb 0.00 in0.0 mm 0.00 in0.0 mm 0.20 in5.1 mm
01:40 PM 72.2°F22.3°C 69.7°F20.9°C 92% Calm Calm 3.0 mph4.8 kmh 29.89 in1012.2 mb 0.00 in0.0 mm 0.00 in0.0 mm 0.20 in5.1 mm
01:50 PM 72.1°F22.3°C 69.6°F20.9°C 92% 1.0 mph SE1.6 kmh SE 5.0 mph8.0 kmh 29.89 in1012.2 mb 0.00 in0.0 mm 0.00 in0.0 mm 0.20 in5.1 mm
02:00 PM 71.9°F22.2°C 69.5°F20.8°C 92% Calm Calm 3.0 mph4.8 kmh 29.89 in1012.2 mb 0.00 in0.0 mm 0.00 in0.0 mm 0.20 in5.1 mm
02:10 PM 71.8°F22.1°C 69.4°F20.8°C 92% Calm Calm 3.0 mph4.8 kmh 29.89 in1012.2 mb 0.00 in0.0 mm 0.00 in0.0 mm 0.20 in5.1 mm
02:20 PM 71.7°F22.1°C 69.3°F20.7°C 92% 1.0 mph ESE1.6 kmh ESE 3.0 mph4.8 kmh 29.88 in1011.9 mb 0.00 in0.0 mm 0.00 in0.0 mm 0.20 in5.1 mm
02:30 PM 71.6°F22.0°C 69.2°F20.7°C 92% Calm Calm 2.0 mph3.2 kmh 29.88 in1011.9 mb 0.00 in0.0 mm 0.00 in0.0 mm 0.20 in5.1 mm
02:40 PM 71.6°F22.0°C 69.5°F20.8°C 93% Calm Calm 4.0 mph6.4 kmh 29.88 in1011.9 mb 0.00 in0.0 mm 0.00 in0.0 mm 0.20 in5.1 mm
02:50 PM 71.5°F21.9°C 69.4°F20.8°C 93% Calm Calm 6.0 mph9.7 kmh 29.87 in1011.5 mb 0.00 in0.0 mm 0.00 in0.0 mm 0.20 in5.1 mm
03:00 PM 71.4°F21.9°C 69.3°F20.7°C 93% Calm Calm 6.0 mph9.7 kmh 29.87 in1011.5 mb 0.00 in0.0 mm 0.00 in0.0 mm 0.20 in5.1 mm
03:10 PM 71.4°F21.9°C 69.3°F20.7°C 93% Calm Calm -- 29.87 in1011.5 mb 0.00 in0.0 mm 0.00 in0.0 mm 0.20 in5.1 mm
03:20 PM 71.5°F21.9°C 69.7°F20.9°C 94% Calm Calm 3.0 mph4.8 kmh 29.87 in1011.5 mb 0.00 in0.0 mm 0.00 in0.0 mm 0.20 in5.1 mm
03:30 PM 71.6°F22.0°C 69.8°F21.0°C 94% Calm Calm 1.0 mph1.6 kmh 29.87 in1011.5 mb 0.00 in0.0 mm 0.00 in0.0 mm 0.20 in5.1 mm
03:40 PM 71.6°F22.0°C 69.8°F21.0°C 94% Calm Calm 4.0 mph6.4 kmh 29.86 in1011.2 mb 0.00 in0.0 mm 0.00 in0.0 mm 0.20 in5.1 mm
03:50 PM 71.6°F22.0°C 69.8°F21.0°C 94% Calm Calm 1.0 mph1.6 kmh 29.86 in1011.2 mb 0.00 in0.0 mm 0.00 in0.0 mm 0.20 in5.1 mm
04:00 PM 71.8°F22.1°C 70.0°F21.1°C 94% Calm Calm 2.0 mph3.2 kmh 29.85 in1010.8 mb 0.00 in0.0 mm 0.00 in0.0 mm 0.20 in5.1 mm
04:10 PM 71.9°F22.2°C 70.1°F21.2°C 94% Calm Calm 1.0 mph1.6 kmh 29.85 in1010.8 mb 0.00 in0.0 mm 0.00 in0.0 mm 0.20 in5.1 mm
04:20 PM 72.0°F22.2°C 70.2°F21.2°C 94% Calm Calm 1.0 mph1.6 kmh 29.85 in1010.8 mb 0.00 in0.0 mm 0.00 in0.0 mm 0.20 in5.1 mm
04:30 PM 72.1°F22.3°C 70.3°F21.3°C 94% 1.0 mph SE1.6 kmh SE 3.0 mph4.8 kmh 29.84 in1010.5 mb 0.00 in0.0 mm 0.00 in0.0 mm 0.20 in5.1 mm
04:40 PM 72.3°F22.4°C 70.5°F21.4°C 94% Calm Calm 2.0 mph3.2 kmh 29.84 in1010.5 mb 0.00 in0.0 mm 0.00 in0.0 mm 0.20 in5.1 mm
04:50 PM 72.6°F22.6°C 70.8°F21.6°C 94% Calm Calm 1.0 mph1.6 kmh 29.84 in1010.5 mb 0.00 in0.0 mm 0.00 in0.0 mm 0.20 in5.1 mm
05:00 PM 72.9°F22.7°C 71.1°F21.7°C 94% Calm Calm 3.0 mph4.8 kmh 29.84 in1010.5 mb 0.00 in0.0 mm 0.00 in0.0 mm 0.20 in5.1 mm
05:10 PM 73.2°F22.9°C 71.1°F21.7°C 93% Calm Calm 2.0 mph3.2 kmh 29.84 in1010.5 mb 0.00 in0.0 mm 0.00 in0.0 mm 0.20 in5.1 mm
05:20 PM 73.3°F22.9°C 71.2°F21.8°C 93% Calm Calm -- 29.84 in1010.5 mb 0.00 in0.0 mm 0.00 in0.0 mm 0.20 in5.1 mm
05:30 PM 73.5°F23.1°C 71.4°F21.9°C 93% Calm Calm 1.0 mph1.6 kmh 29.84 in1010.5 mb 0.00 in0.0 mm 0.00 in0.0 mm 0.20 in5.1 mm
05:40 PM 73.6°F23.1°C 71.1°F21.7°C 92% 1.0 mph E1.6 kmh E 2.0 mph3.2 kmh 29.84 in1010.5 mb 0.00 in0.0 mm 0.00 in0.0 mm 0.20 in5.1 mm
05:50 PM 73.9°F23.3°C 71.1°F21.7°C 91% Calm Calm 4.0 mph6.4 kmh 29.84 in1010.5 mb 0.00 in0.0 mm 0.00 in0.0 mm 0.20 in5.1 mm
06:00 PM 74.1°F23.4°C 71.3°F21.8°C 91% 1.0 mph E1.6 kmh E 4.0 mph6.4 kmh 29.84 in1010.5 mb 0.00 in0.0 mm 0.00 in0.0 mm 0.20 in5.1 mm
06:10 PM 74.3°F23.5°C 71.2°F21.8°C 90% Calm Calm 2.0 mph3.2 kmh 29.83 in1010.2 mb 0.00 in0.0 mm 0.00 in0.0 mm 0.20 in5.1 mm
06:20 PM 74.4°F23.6°C 70.9°F21.6°C 89% Calm Calm 3.0 mph4.8 kmh 29.84 in1010.5 mb 0.00 in0.0 mm 0.00 in0.0 mm 0.20 in5.1 mm
06:30 PM 74.4°F23.6°C 70.6°F21.4°C 88% Calm Calm 5.0 mph8.0 kmh 29.84 in1010.5 mb 0.00 in0.0 mm 0.00 in0.0 mm 0.20 in5.1 mm
06:40 PM 74.4°F23.6°C 70.3°F21.3°C 87% Calm Calm 5.0 mph8.0 kmh 29.84 in1010.5 mb 0.00 in0.0 mm 0.00 in0.0 mm 0.20 in5.1 mm
06:50 PM 74.4°F23.6°C 70.6°F21.4°C 88% Calm Calm 4.0 mph6.4 kmh 29.84 in1010.5 mb 0.00 in0.0 mm 0.00 in0.0 mm 0.20 in5.1 mm
07:00 PM 74.3°F23.5°C 70.5°F21.4°C 88% Calm Calm 6.0 mph9.7 kmh 29.83 in1010.2 mb 0.00 in0.0 mm 0.00 in0.0 mm 0.20 in5.1 mm
07:10 PM 74.2°F23.4°C 70.4°F21.3°C 88% Calm Calm 2.0 mph3.2 kmh 29.83 in1010.2 mb 0.00 in0.0 mm 0.00 in0.0 mm 0.20 in5.1 mm
07:20 PM 74.0°F23.3°C 70.2°F21.2°C 88% Calm Calm 2.0 mph3.2 kmh 29.83 in1010.2 mb 0.00 in0.0 mm 0.00 in0.0 mm 0.20 in5.1 mm
07:30 PM 73.8°F23.2°C 70.0°F21.1°C 88% Calm Calm 4.0 mph6.4 kmh 29.83 in1010.2 mb 0.00 in0.0 mm 0.00 in0.0 mm 0.20 in5.1 mm
07:40 PM 73.6°F23.1°C 69.8°F21.0°C 88% Calm Calm 3.0 mph4.8 kmh 29.82 in1009.8 mb 0.00 in0.0 mm 0.00 in0.0 mm 0.20 in5.1 mm
07:50 PM 73.4°F23.0°C 70.0°F21.1°C 89% Calm Calm 2.0 mph3.2 kmh 29.82 in1009.8 mb 0.00 in0.0 mm 0.00 in0.0 mm 0.20 in5.1 mm
08:00 PM 73.3°F22.9°C 69.9°F21.1°C 89% Calm Calm 2.0 mph3.2 kmh 29.83 in1010.2 mb 0.00 in0.0 mm 0.00 in0.0 mm 0.20 in5.1 mm
08:10 PM 73.1°F22.8°C 69.7°F20.9°C 89% 1.0 mph ESE1.6 kmh ESE 6.0 mph9.7 kmh 29.83 in1010.2 mb 0.00 in0.0 mm 0.00 in0.0 mm 0.20 in5.1 mm
08:20 PM 72.9°F22.7°C 69.5°F20.8°C 89% Calm Calm 3.0 mph4.8 kmh 29.83 in1010.2 mb 0.00 in0.0 mm 0.00 in0.0 mm 0.20 in5.1 mm
08:30 PM 72.7°F22.6°C 69.6°F20.9°C 90% Calm Calm 2.0 mph3.2 kmh 29.83 in1010.2 mb 0.00 in0.0 mm 0.00 in0.0 mm 0.20 in5.1 mm
08:40 PM 72.6°F22.6°C 69.5°F20.8°C 90% Calm Calm -- 29.84 in1010.5 mb 0.00 in0.0 mm 0.00 in0.0 mm 0.20 in5.1 mm
08:50 PM 72.4°F22.4°C 69.3°F20.7°C 90% Calm Calm 2.0 mph3.2 kmh 29.84 in1010.5 mb 0.00 in0.0 mm 0.00 in0.0 mm 0.20 in5.1 mm
09:10 PM 72.1°F22.3°C 69.3°F20.7°C 91% Calm Calm 1.0 mph1.6 kmh 29.84 in1010.5 mb 0.00 in0.0 mm 0.00 in0.0 mm 0.20 in5.1 mm
09:20 PM 71.9°F22.2°C 69.1°F20.6°C 91% Calm Calm 1.0 mph1.6 kmh 29.84 in1010.5 mb 0.00 in0.0 mm 0.00 in0.0 mm 0.20 in5.1 mm
09:30 PM 71.9°F22.2°C 69.1°F20.6°C 91% Calm Calm 1.0 mph1.6 kmh 29.85 in1010.8 mb 0.00 in0.0 mm 0.00 in0.0 mm 0.20 in5.1 mm
09:40 PM 71.8°F22.1°C 69.4°F20.8°C 92% Calm Calm 1.0 mph1.6 kmh 29.85 in1010.8 mb 0.01 in0.3 mm 0.06 in1.5 mm 0.21 in5.3 mm
09:50 PM 71.4°F21.9°C 69.0°F20.6°C 92% Calm Calm 7.0 mph11.3 kmh 29.86 in1011.2 mb 0.01 in0.3 mm 0.00 in0.0 mm 0.21 in5.3 mm
10:00 PM 70.6°F21.4°C 67.8°F19.9°C 91% Calm Calm 5.0 mph8.0 kmh 29.87 in1011.5 mb 0.02 in0.5 mm 0.01 in0.3 mm 0.22 in5.6 mm
10:20 PM 69.3°F20.7°C 66.6°F19.2°C 91% Calm Calm 1.0 mph1.6 kmh 29.86 in1011.2 mb 0.04 in1.0 mm 0.06 in1.5 mm 0.24 in6.1 mm
10:30 PM 68.8°F20.4°C 66.4°F19.1°C 92% Calm Calm -- 29.85 in1010.8 mb 0.05 in1.3 mm 0.06 in1.5 mm 0.25 in6.4 mm
10:40 PM 68.5°F20.3°C 66.4°F19.1°C 93% Calm Calm -- 29.84 in1010.5 mb 0.05 in1.3 mm 0.00 in0.0 mm 0.26 in6.6 mm
10:50 PM 68.2°F20.1°C 66.1°F18.9°C 93% Calm Calm -- 29.84 in1010.5 mb 0.06 in1.5 mm 0.06 in1.5 mm 0.27 in6.9 mm
11:10 PM 67.8°F19.9°C 66.0°F18.9°C 94% Calm Calm -- 29.84 in1010.5 mb 0.05 in1.3 mm 0.00 in0.0 mm 0.28 in7.1 mm
11:20 PM 67.7°F19.8°C 65.9°F18.8°C 94% Calm Calm -- 29.85 in1010.8 mb 0.05 in1.3 mm 0.00 in0.0 mm 0.29 in7.4 mm
11:30 PM 67.6°F19.8°C 65.8°F18.8°C 94% Calm Calm -- 29.85 in1010.8 mb 0.05 in1.3 mm 0.00 in0.0 mm 0.30 in7.6 mm
11:50 PM 67.4°F19.7°C 65.9°F18.8°C 95% Calm Calm -- 29.84 in1010.5 mb 0.04 in1.0 mm 0.00 in0.0 mm 0.31 in7.9 mm